createdAt,value
2018-12-10T00:00:56.626Z,92.14
2018-12-10T00:02:04.687Z,91.71
2018-12-10T00:03:12.742Z,91.66
2018-12-10T00:04:20.811Z,91.47
2018-12-10T00:05:28.867Z,91.81
2018-12-10T00:06:36.933Z,91.66
2018-12-10T00:07:44.974Z,90.72
2018-12-10T00:08:53.100Z,90.91
2018-12-10T00:10:01.101Z,89.63
2018-12-10T00:11:09.142Z,89.39
2018-12-10T00:12:17.221Z,89.67
2018-12-10T00:13:25.250Z,89.11
2018-12-10T00:14:33.326Z,88.82
2018-12-10T00:15:41.398Z,89.11
2018-12-10T00:16:49.425Z,90.24
2018-12-10T00:17:57.501Z,89.39
2018-12-10T00:19:05.529Z,90.58
2018-12-10T00:20:13.709Z,90.53
2018-12-10T00:21:21.668Z,90.62
2018-12-10T00:22:29.739Z,91.33
2018-12-10T00:23:37.790Z,90.77
2018-12-10T00:24:45.826Z,91.00
2018-12-10T00:25:53.897Z,91.00
2018-12-10T00:27:01.959Z,91.90
2018-12-10T00:28:10.018Z,92.09
2018-12-10T00:29:18.077Z,92.19
2018-12-10T00:30:26.138Z,91.90
2018-12-10T00:31:34.203Z,91.24
2018-12-10T00:32:42.270Z,92.47
2018-12-10T00:33:50.318Z,93.51
2018-12-10T00:34:58.372Z,92.85
2018-12-10T00:36:06.428Z,92.57
2018-12-10T00:37:14.495Z,91.90
2018-12-10T00:38:22.551Z,92.00
2018-12-10T00:39:30.599Z,91.43
2018-12-10T00:40:38.668Z,91.33
2018-12-10T00:41:46.731Z,91.33
2018-12-10T00:42:54.759Z,91.33
2018-12-10T00:44:02.846Z,90.67
2018-12-10T00:45:10.897Z,92.28
2018-12-10T00:46:18.932Z,92.38
2018-12-10T00:47:27.008Z,92.66
2018-12-10T00:48:35.129Z,92.28
2018-12-10T00:49:43.109Z,93.51
2018-12-10T00:50:51.181Z,94.65
2018-12-10T00:51:59.251Z,93.61
2018-12-10T00:53:07.308Z,94.46
2018-12-10T00:54:15.332Z,93.89
2018-12-10T00:55:23.423Z,93.80
2018-12-10T00:56:31.480Z,95.41
2018-12-10T00:57:39.528Z,94.65
2018-12-10T00:58:47.583Z,96.45
2018-12-10T00:59:55.635Z,95.88
2018-12-10T01:01:03.696Z,96.26
2018-12-10T01:02:11.773Z,96.07
2018-12-10T01:03:19.819Z,95.41
2018-12-10T01:04:27.880Z,95.50
2018-12-10T01:05:35.933Z,95.69
2018-12-10T01:06:43.988Z,96.55
2018-12-10T01:07:52.057Z,96.55
2018-12-10T01:09:00.100Z,97.02
2018-12-10T01:10:08.169Z,96.17
2018-12-10T01:11:16.224Z,97.59
2018-12-10T01:12:24.270Z,99.99
2018-12-10T01:13:32.331Z,99.58
2018-12-10T01:14:40.399Z,99.58
2018-12-10T01:15:48.459Z,99.99
2018-12-10T01:16:56.525Z,99.99
2018-12-10T01:18:04.571Z,99.99
2018-12-10T01:19:12.631Z,99.99
2018-12-10T01:20:20.692Z,99.99
2018-12-10T01:21:28.761Z,99.99
2018-12-10T01:22:36.887Z,99.99
2018-12-10T01:23:44.840Z,99.99
2018-12-10T01:24:52.925Z,99.99
2018-12-10T01:26:00.978Z,99.99
2018-12-10T01:27:09.057Z,99.99
2018-12-10T01:28:17.114Z,99.99
2018-12-10T01:29:25.136Z,99.99
2018-12-10T01:30:33.206Z,99.99
2018-12-10T01:31:41.267Z,99.99
2018-12-10T01:32:49.320Z,99.99
2018-12-10T01:33:57.379Z,99.99
2018-12-10T01:35:05.416Z,99.99
2018-12-10T01:36:13.497Z,99.99
2018-12-10T01:37:21.541Z,99.99
2018-12-10T01:38:29.602Z,99.99
2018-12-10T01:39:37.680Z,99.99
2018-12-10T01:40:45.696Z,99.99
2018-12-10T01:41:53.768Z,99.99
2018-12-10T01:43:01.824Z,99.96
2018-12-10T01:44:09.893Z,99.99
2018-12-10T01:45:17.946Z,99.99
2018-12-10T01:46:26.000Z,99.99
2018-12-10T01:47:34.060Z,99.99
2018-12-10T01:48:42.127Z,99.99
2018-12-10T01:49:50.185Z,99.99
2018-12-10T01:50:58.235Z,99.10
2018-12-10T01:52:06.306Z,99.99
2018-12-10T01:53:14.368Z,99.99
2018-12-10T01:54:22.416Z,99.99
2018-12-10T01:55:30.463Z,99.99
2018-12-10T01:56:38.529Z,99.99
2018-12-10T01:57:46.579Z,99.77
2018-12-10T01:58:54.638Z,99.58
2018-12-10T02:00:02.698Z,99.99
2018-12-10T02:01:10.752Z,99.99
2018-12-10T02:02:18.806Z,99.99
2018-12-10T02:03:26.862Z,99.99
2018-12-10T02:04:34.928Z,99.99
2018-12-10T02:05:42.997Z,99.99
2018-12-10T02:06:51.056Z,99.99
2018-12-10T02:07:59.110Z,99.99
2018-12-10T02:09:07.159Z,99.01
2018-12-10T02:10:15.205Z,99.58
2018-12-10T02:11:23.272Z,99.99
2018-12-10T02:12:31.331Z,99.99
2018-12-10T02:13:39.402Z,99.99
2018-12-10T02:14:47.440Z,99.99
2018-12-10T02:15:55.493Z,99.58
2018-12-10T02:17:03.577Z,98.82
2018-12-10T02:18:11.639Z,99.99
2018-12-10T02:19:19.692Z,99.01
2018-12-10T02:20:27.761Z,99.99
2018-12-10T02:21:35.778Z,99.99
2018-12-10T02:22:44.023Z,99.99
2018-12-10T02:23:51.926Z,99.67
2018-12-10T02:24:59.969Z,99.58
2018-12-10T02:26:08.025Z,99.96
2018-12-10T02:27:16.079Z,99.86
2018-12-10T02:28:24.136Z,99.99
2018-12-10T02:29:32.193Z,99.99
2018-12-10T02:30:40.258Z,99.99
2018-12-10T02:31:48.318Z,99.99
2018-12-10T02:32:56.374Z,99.99
2018-12-10T02:34:04.433Z,99.99
2018-12-10T02:35:12.488Z,99.99
2018-12-10T02:36:20.539Z,99.99
2018-12-10T02:37:28.604Z,99.99
2018-12-10T02:38:36.651Z,99.99
2018-12-10T02:39:45.767Z,99.99
2018-12-10T02:40:52.793Z,99.99
2018-12-10T02:42:00.817Z,99.99
2018-12-10T02:43:08.888Z,99.99
2018-12-10T02:44:16.986Z,99.99
2018-12-10T02:45:24.985Z,99.99
2018-12-10T02:46:33.061Z,99.99
2018-12-10T02:47:41.131Z,99.99
2018-12-10T02:48:49.186Z,99.99
2018-12-10T02:49:57.241Z,99.99
2018-12-10T02:51:05.261Z,99.99
2018-12-10T02:52:13.357Z,99.99
2018-12-10T02:53:21.414Z,99.99
2018-12-10T02:54:29.488Z,99.99
2018-12-10T02:55:37.521Z,99.99
2018-12-10T02:56:45.559Z,99.99
2018-12-10T02:57:53.639Z,99.99
2018-12-10T02:59:01.698Z,99.99
2018-12-10T03:00:09.761Z,99.99
2018-12-10T03:01:17.810Z,99.99
2018-12-10T03:02:25.878Z,99.67
2018-12-10T03:03:33.924Z,99.67
2018-12-10T03:04:41.984Z,99.99
2018-12-10T03:05:50.040Z,99.99
2018-12-10T03:06:58.099Z,99.96
2018-12-10T03:08:06.155Z,99.48
2018-12-10T03:09:14.221Z,98.25
2018-12-10T03:10:22.281Z,98.82
2018-12-10T03:11:30.325Z,97.87
2018-12-10T03:12:38.397Z,96.83
2018-12-10T03:13:46.456Z,96.55
2018-12-10T03:14:54.499Z,96.73
2018-12-10T03:16:02.558Z,99.29
2018-12-10T03:17:10.619Z,99.20
2018-12-10T03:18:18.681Z,98.35
2018-12-10T03:19:26.746Z,99.48
2018-12-10T03:20:34.804Z,98.06
2018-12-10T03:21:42.844Z,98.82
2018-12-10T03:22:50.918Z,98.63
2018-12-10T03:23:58.978Z,98.63
2018-12-10T03:25:07.025Z,97.78
2018-12-10T03:26:15.064Z,96.26
2018-12-10T03:27:23.141Z,96.17
2018-12-10T03:28:31.215Z,95.50
2018-12-10T03:29:39.264Z,95.41
2018-12-10T03:30:47.321Z,95.12
2018-12-10T03:31:55.359Z,94.65
2018-12-10T03:33:03.457Z,94.08
2018-12-10T03:34:11.498Z,94.93
2018-12-10T03:35:19.546Z,94.56
2018-12-10T03:36:27.691Z,95.69
2018-12-10T03:37:37.228Z,98.82
2018-12-10T03:38:43.726Z,99.99
2018-12-10T03:39:51.773Z,99.99
2018-12-10T03:40:59.822Z,99.99
2018-12-10T03:42:07.889Z,99.99
2018-12-10T03:43:15.938Z,99.99
2018-12-10T03:44:24.004Z,99.99
2018-12-10T03:45:32.073Z,99.99
2018-12-10T03:46:40.121Z,99.99
2018-12-10T03:47:48.172Z,99.99
2018-12-10T03:48:56.237Z,99.99
2018-12-10T03:50:04.299Z,99.99
2018-12-10T03:51:12.360Z,99.24
2018-12-10T03:52:20.428Z,99.52
2018-12-10T03:53:28.468Z,98.49
2018-12-10T03:54:36.527Z,99.15
2018-12-10T03:55:44.594Z,99.99
2018-12-10T03:56:52.658Z,99.99
2018-12-10T03:58:00.705Z,99.99
2018-12-10T03:59:08.776Z,99.05
2018-12-10T04:00:16.905Z,99.99
2018-12-10T04:01:24.869Z,99.99
2018-12-10T04:02:32.928Z,99.99
2018-12-10T04:03:41.007Z,99.99
2018-12-10T04:04:49.043Z,99.99
2018-12-10T04:05:57.118Z,98.96
2018-12-10T04:07:05.156Z,99.99
2018-12-10T04:08:13.211Z,99.99
2018-12-10T04:09:21.295Z,99.52
2018-12-10T04:10:29.338Z,99.99
2018-12-10T04:11:37.407Z,99.99
2018-12-10T04:12:45.440Z,99.99
2018-12-10T04:13:53.513Z,99.99
2018-12-10T04:15:01.587Z,99.99
2018-12-10T04:16:09.633Z,99.99
2018-12-10T04:17:17.694Z,99.99
2018-12-10T04:18:25.821Z,99.99
2018-12-10T04:19:33.801Z,99.99
2018-12-10T04:20:41.847Z,99.99
2018-12-10T04:21:49.902Z,99.99
2018-12-10T04:22:57.964Z,99.99
2018-12-10T04:24:06.027Z,99.99
2018-12-10T04:25:14.086Z,99.99
2018-12-10T04:26:22.175Z,99.99
2018-12-10T04:27:30.256Z,99.99
2018-12-10T04:28:38.267Z,99.99
2018-12-10T04:29:46.337Z,99.99
2018-12-10T04:30:54.362Z,99.99
2018-12-10T04:32:02.424Z,99.99
2018-12-10T04:33:10.478Z,99.33
2018-12-10T04:34:18.552Z,97.44
2018-12-10T04:35:26.609Z,99.52
2018-12-10T04:36:34.667Z,99.99
2018-12-10T04:37:42.717Z,99.99
2018-12-10T04:38:50.772Z,99.99
2018-12-10T04:39:58.836Z,99.99
2018-12-10T04:41:06.889Z,99.99
2018-12-10T04:42:14.948Z,98.49
2018-12-10T04:43:23.008Z,97.82
2018-12-10T04:44:31.067Z,96.97
2018-12-10T04:45:39.110Z,97.44
2018-12-10T04:46:47.191Z,97.63
2018-12-10T04:47:55.210Z,96.50
2018-12-10T04:49:03.310Z,96.97
2018-12-10T04:50:11.356Z,98.20
2018-12-10T04:51:19.409Z,99.43
2018-12-10T04:52:27.521Z,98.20
2018-12-10T04:53:35.516Z,98.68
2018-12-10T04:54:43.589Z,99.99
2018-12-10T04:55:51.641Z,97.73
2018-12-10T04:56:59.706Z,98.77
2018-12-10T04:58:07.766Z,97.44
2018-12-10T04:59:15.810Z,97.35
2018-12-10T05:00:23.866Z,99.99
2018-12-10T05:01:31.922Z,99.99
2018-12-10T05:02:39.976Z,99.99
2018-12-10T05:03:48.043Z,99.99
2018-12-10T05:04:56.108Z,99.99
2018-12-10T05:06:04.158Z,99.99
2018-12-10T05:07:12.216Z,99.99
2018-12-10T05:08:20.268Z,99.99
2018-12-10T05:09:28.330Z,99.99
2018-12-10T05:10:36.488Z,99.99
2018-12-10T05:11:44.469Z,99.99
2018-12-10T05:12:52.491Z,99.99
2018-12-10T05:14:00.561Z,99.99
2018-12-10T05:15:08.613Z,99.99
2018-12-10T05:16:16.683Z,99.99
2018-12-10T05:17:24.736Z,99.99
2018-12-10T05:18:32.796Z,99.39
2018-12-10T05:19:40.832Z,98.25
2018-12-10T05:20:48.917Z,97.78
2018-12-10T05:21:56.962Z,97.21
2018-12-10T05:23:05.022Z,97.87
2018-12-10T05:24:13.084Z,97.59
2018-12-10T05:25:21.149Z,97.21
2018-12-10T05:26:29.200Z,96.64
2018-12-10T05:27:37.299Z,95.50
2018-12-10T05:28:45.309Z,96.55
2018-12-10T05:29:53.519Z,95.69
2018-12-10T05:31:01.431Z,95.50
2018-12-10T05:32:09.497Z,96.26
2018-12-10T05:33:17.547Z,97.30
2018-12-10T05:34:25.580Z,97.02
2018-12-10T05:35:33.878Z,98.82
2018-12-10T05:36:41.722Z,99.71
2018-12-10T05:37:49.778Z,99.99
2018-12-10T05:38:57.839Z,99.99
2018-12-10T05:40:07.203Z,98.91
2018-12-10T05:41:13.940Z,97.97
2018-12-10T05:42:22.007Z,97.59
2018-12-10T05:43:30.074Z,99.10
2018-12-10T05:44:38.127Z,98.82
2018-12-10T05:45:46.191Z,98.35
2018-12-10T05:46:54.248Z,98.25
2018-12-10T05:48:02.299Z,97.78
2018-12-10T05:49:10.350Z,99.20
2018-12-10T05:50:18.415Z,99.20
2018-12-10T05:51:26.487Z,98.16
2018-12-10T05:52:34.531Z,98.82
2018-12-10T05:53:42.688Z,99.39
2018-12-10T05:54:50.648Z,97.63
2018-12-10T05:55:58.714Z,97.44
2018-12-10T05:57:06.764Z,97.73
2018-12-10T05:58:14.822Z,97.44
2018-12-10T05:59:22.881Z,96.69
2018-12-10T06:00:30.924Z,97.63
2018-12-10T06:01:39.033Z,97.92
2018-12-10T06:02:47.202Z,97.63
2018-12-10T06:03:55.095Z,97.25
2018-12-10T06:05:03.647Z,96.59
2018-12-10T06:06:11.223Z,96.69
2018-12-10T06:07:19.290Z,97.25
2018-12-10T06:08:27.332Z,97.82
2018-12-10T06:09:35.410Z,96.59
2018-12-10T06:10:43.462Z,97.44
2018-12-10T06:11:51.523Z,96.59
2018-12-10T06:12:59.579Z,97.63
2018-12-10T06:14:07.633Z,97.54
2018-12-10T06:15:15.678Z,96.50
2018-12-10T06:16:23.749Z,96.31
2018-12-10T06:17:31.797Z,95.74
2018-12-10T06:18:39.857Z,95.07
2018-12-10T06:19:47.918Z,95.07
2018-12-10T06:20:55.959Z,95.64
2018-12-10T06:22:04.036Z,95.45
2018-12-10T06:23:12.088Z,96.02
2018-12-10T06:24:20.154Z,96.21
2018-12-10T06:25:28.218Z,96.31
2018-12-10T06:26:36.265Z,96.02
2018-12-10T06:27:44.362Z,96.69
2018-12-10T06:28:52.381Z,97.06
2018-12-10T06:30:00.460Z,96.69
2018-12-10T06:31:08.488Z,96.73
2018-12-10T06:32:16.550Z,95.97
2018-12-10T06:33:24.606Z,95.12
2018-12-10T06:34:32.663Z,95.03
2018-12-10T06:35:40.728Z,95.31
2018-12-10T06:36:48.783Z,95.78
2018-12-10T06:37:56.832Z,95.12
2018-12-10T06:39:04.888Z,94.84
2018-12-10T06:40:12.942Z,93.89
2018-12-10T06:41:21.017Z,93.89
2018-12-10T06:42:29.114Z,93.51
2018-12-10T06:43:37.124Z,92.94
2018-12-10T06:44:45.149Z,93.23
2018-12-10T06:45:53.247Z,92.85
2018-12-10T06:47:01.300Z,92.76
2018-12-10T06:48:09.351Z,92.76
2018-12-10T06:49:17.411Z,92.00
2018-12-10T06:50:25.436Z,91.72
2018-12-10T06:51:33.520Z,91.72
2018-12-10T06:52:41.589Z,92.00
2018-12-10T06:53:49.626Z,91.43
2018-12-10T06:54:57.695Z,92.29
2018-12-10T06:56:05.723Z,91.15
2018-12-10T06:57:13.820Z,90.44
2018-12-10T06:58:21.857Z,91.34
2018-12-10T06:59:29.921Z,90.44
2018-12-10T07:00:37.996Z,91.01
2018-12-10T07:01:46.029Z,91.20
2018-12-10T07:02:54.083Z,91.29
2018-12-10T07:04:02.144Z,91.29
2018-12-10T07:05:10.222Z,90.91
2018-12-10T07:06:18.253Z,91.10
2018-12-10T07:07:26.339Z,91.20
2018-12-10T07:08:34.381Z,89.69
2018-12-10T07:09:42.418Z,89.69
2018-12-10T07:10:50.490Z,89.31
2018-12-10T07:11:58.543Z,89.31
2018-12-10T07:13:06.606Z,90.06
2018-12-10T07:14:14.653Z,89.50
2018-12-10T07:15:22.714Z,90.16
2018-12-10T07:16:30.758Z,89.02
2018-12-10T07:17:38.818Z,88.55
2018-12-10T07:18:46.878Z,87.98
2018-12-10T07:19:54.935Z,87.41
2018-12-10T07:21:03.001Z,87.70
2018-12-10T07:22:11.053Z,86.94
2018-12-10T07:23:19.115Z,86.47
2018-12-10T07:24:27.168Z,86.66
2018-12-10T07:25:35.212Z,85.99
2018-12-10T07:26:43.271Z,85.42
2018-12-10T07:27:51.326Z,86.09
2018-12-10T07:28:59.391Z,86.47
2018-12-10T07:30:07.446Z,86.37
2018-12-10T07:31:15.492Z,86.94
2018-12-10T07:32:23.571Z,87.32
2018-12-10T07:33:31.633Z,88.17
2018-12-10T07:34:41.408Z,88.36
2018-12-10T07:35:47.728Z,89.02
2018-12-10T07:36:55.768Z,88.93
2018-12-10T07:38:03.849Z,89.21
2018-12-10T07:39:11.895Z,89.21
2018-12-10T07:40:19.968Z,90.25
2018-12-10T07:41:28.006Z,90.53
2018-12-10T07:42:36.066Z,90.67
2018-12-10T07:43:44.122Z,90.48
2018-12-10T07:44:52.178Z,90.53
2018-12-10T07:46:00.241Z,90.77
2018-12-10T07:47:08.302Z,91.10
2018-12-10T07:48:16.453Z,90.34
2018-12-10T07:49:24.408Z,91.43
2018-12-10T07:50:32.464Z,91.34
2018-12-10T07:51:40.530Z,90.48
2018-12-10T07:52:48.578Z,90.48
2018-12-10T07:53:56.674Z,90.20
2018-12-10T07:55:04.710Z,90.30
2018-12-10T07:56:12.753Z,89.82
2018-12-10T07:57:20.819Z,88.97
2018-12-10T07:58:28.862Z,88.78
2018-12-10T07:59:36.930Z,88.68
2018-12-10T08:00:44.967Z,90.77
2018-12-10T08:01:53.033Z,91.43
2018-12-10T08:03:01.085Z,91.43
2018-12-10T08:04:09.150Z,91.81
2018-12-10T08:05:17.209Z,91.43
2018-12-10T08:06:25.241Z,90.77
2018-12-10T08:07:33.311Z,91.29
2018-12-10T08:08:41.385Z,91.67
2018-12-10T08:09:49.433Z,92.52
2018-12-10T08:10:57.507Z,93.27
2018-12-10T08:12:05.536Z,94.51
2018-12-10T08:13:13.600Z,94.42
2018-12-10T08:14:21.653Z,95.64
2018-12-10T08:15:29.721Z,96.40
2018-12-10T08:16:37.765Z,96.40
2018-12-10T08:17:45.836Z,97.73
2018-12-10T08:18:53.916Z,96.59
2018-12-10T08:20:02.088Z,95.83
2018-12-10T08:21:10.014Z,97.73
2018-12-10T08:22:18.069Z,98.35
2018-12-10T08:23:26.152Z,98.44
2018-12-10T08:24:34.172Z,99.86
2018-12-10T08:25:42.257Z,99.99
2018-12-10T08:26:50.307Z,99.99
2018-12-10T08:27:58.363Z,99.20
2018-12-10T08:29:07.372Z,98.16
2018-12-10T08:30:14.470Z,97.78
2018-12-10T08:31:22.531Z,96.36
2018-12-10T08:32:30.586Z,97.21
2018-12-10T08:33:38.652Z,98.06
2018-12-10T08:34:46.710Z,98.16
2018-12-10T08:35:54.759Z,99.99
2018-12-10T08:37:02.814Z,99.99
2018-12-10T08:38:10.858Z,99.01
2018-12-10T08:39:18.931Z,98.91
2018-12-10T08:40:26.982Z,99.99
2018-12-10T08:41:35.042Z,99.99
2018-12-10T08:42:43.107Z,99.99
2018-12-10T08:43:51.159Z,99.99
2018-12-10T08:44:59.240Z,99.99
2018-12-10T08:46:07.294Z,99.67
2018-12-10T08:47:16.081Z,99.96
2018-12-10T08:48:23.406Z,99.99
2018-12-10T08:49:31.467Z,99.48
2018-12-10T08:50:39.523Z,99.67
2018-12-10T08:51:47.567Z,99.48
2018-12-10T08:52:55.617Z,99.48
2018-12-10T08:54:03.687Z,99.71
2018-12-10T08:55:11.744Z,99.90
2018-12-10T08:56:19.789Z,97.82
2018-12-10T08:57:27.866Z,96.69
2018-12-10T08:58:35.920Z,98.01
2018-12-10T08:59:43.987Z,97.73
2018-12-10T09:00:52.028Z,97.63
2018-12-10T09:02:00.102Z,96.26
2018-12-10T09:03:08.179Z,97.78
2018-12-10T09:04:16.210Z,98.25
2018-12-10T09:05:24.273Z,99.99
2018-12-10T09:06:32.330Z,99.39
2018-12-10T09:07:40.394Z,99.99
2018-12-10T09:08:48.440Z,99.99
2018-12-10T09:09:56.501Z,99.99
2018-12-10T09:11:04.571Z,99.99
2018-12-10T09:12:12.625Z,99.99
2018-12-10T09:13:20.673Z,99.20
2018-12-10T09:14:28.729Z,99.58
2018-12-10T09:15:36.785Z,99.99
2018-12-10T09:16:44.835Z,99.99
2018-12-10T09:17:52.910Z,99.99
2018-12-10T09:19:01.664Z,99.67
2018-12-10T09:20:09.026Z,99.99
2018-12-10T09:21:17.076Z,99.99
2018-12-10T09:22:25.109Z,99.99
2018-12-10T09:23:33.200Z,99.99
2018-12-10T09:24:41.275Z,99.99
2018-12-10T09:25:49.484Z,99.99
2018-12-10T09:26:57.370Z,99.99
2018-12-10T09:28:05.407Z,99.99
2018-12-10T09:29:13.492Z,99.44
2018-12-10T09:30:21.540Z,99.99
2018-12-10T09:31:29.612Z,99.99
2018-12-10T09:32:37.678Z,99.99
2018-12-10T09:33:45.695Z,99.99
2018-12-10T09:34:53.772Z,99.99
2018-12-10T09:36:01.905Z,99.99
2018-12-10T09:37:09.897Z,99.99
2018-12-10T09:38:17.952Z,99.99
2018-12-10T09:39:26.000Z,99.99
2018-12-10T09:40:34.055Z,99.99
2018-12-10T09:41:42.138Z,99.99
2018-12-10T09:42:50.182Z,99.99
2018-12-10T09:43:58.275Z,99.99
2018-12-10T09:45:06.310Z,99.99
2018-12-10T09:46:14.382Z,99.99
2018-12-10T09:47:22.429Z,99.99
2018-12-10T09:48:30.491Z,99.99
2018-12-10T09:49:38.550Z,99.99
2018-12-10T09:50:46.600Z,99.99
2018-12-10T09:51:54.673Z,99.99
2018-12-10T09:53:02.726Z,99.99
2018-12-10T09:54:10.782Z,99.99
2018-12-10T09:55:18.854Z,99.99
2018-12-10T09:56:26.906Z,99.99
2018-12-10T09:57:34.957Z,99.99
2018-12-10T09:58:43.020Z,99.99
2018-12-10T09:59:51.085Z,99.99
2018-12-10T10:00:59.151Z,99.99
2018-12-10T10:02:12.209Z,99.99
2018-12-10T10:03:15.237Z,99.99
2018-12-10T10:04:23.322Z,99.99
2018-12-10T10:05:31.374Z,99.99
2018-12-10T10:06:39.440Z,99.99
2018-12-10T10:07:47.504Z,99.99
2018-12-10T10:08:55.548Z,99.99
2018-12-10T10:10:03.657Z,99.99
2018-12-10T10:11:11.687Z,99.99
2018-12-10T10:12:19.736Z,99.99
2018-12-10T10:13:27.794Z,99.99
2018-12-10T10:14:35.833Z,99.99
2018-12-10T10:15:43.918Z,99.99
2018-12-10T10:16:51.970Z,99.99
2018-12-10T10:18:00.043Z,99.99
2018-12-10T10:19:08.093Z,99.99
2018-12-10T10:20:16.164Z,99.99
2018-12-10T10:21:24.207Z,99.99
2018-12-10T10:22:32.277Z,99.99
2018-12-10T10:23:40.321Z,99.99
2018-12-10T10:24:48.407Z,98.82
2018-12-10T10:25:56.428Z,99.29
2018-12-10T10:27:04.507Z,97.78
2018-12-10T10:28:12.562Z,99.99
2018-12-10T10:29:20.622Z,99.99
2018-12-10T10:30:28.683Z,99.99
2018-12-10T10:31:36.733Z,99.99
2018-12-10T10:32:44.800Z,99.99
2018-12-10T10:33:52.869Z,99.99
2018-12-10T10:35:00.924Z,99.99
2018-12-10T10:36:08.971Z,99.99
2018-12-10T10:37:17.030Z,99.99
2018-12-10T10:38:25.072Z,99.99
2018-12-10T10:39:33.151Z,99.99
2018-12-10T10:40:41.208Z,99.99
2018-12-10T10:41:49.264Z,99.99
2018-12-10T10:42:57.319Z,99.99
2018-12-10T10:44:05.358Z,99.99
2018-12-10T10:45:13.445Z,99.99
2018-12-10T10:46:21.487Z,99.99
2018-12-10T10:47:29.557Z,99.99
2018-12-10T10:48:37.615Z,99.99
2018-12-10T10:49:45.661Z,99.99
2018-12-10T10:50:53.722Z,99.99
2018-12-10T10:52:01.781Z,99.99
2018-12-10T10:53:09.845Z,99.99
2018-12-10T10:54:17.900Z,99.99
2018-12-10T10:55:25.954Z,99.99
2018-12-10T10:56:34.011Z,99.99
2018-12-10T10:57:42.086Z,99.99
2018-12-10T10:58:50.151Z,99.99
2018-12-10T10:59:58.197Z,99.99
2018-12-10T11:01:06.243Z,99.99
2018-12-10T11:02:14.300Z,99.99
2018-12-10T11:03:22.365Z,99.99
2018-12-10T11:04:37.472Z,99.99
2018-12-10T11:05:38.477Z,99.99
2018-12-10T11:06:46.546Z,99.99
2018-12-10T11:07:54.589Z,99.99
2018-12-10T11:09:02.651Z,99.99
2018-12-10T11:10:10.717Z,99.99
2018-12-10T11:11:18.780Z,99.99
2018-12-10T11:12:26.827Z,99.99
2018-12-10T11:13:34.882Z,99.99
2018-12-10T11:14:42.953Z,99.99
2018-12-10T11:15:51.009Z,99.99
2018-12-10T11:16:59.059Z,99.99
2018-12-10T11:18:07.113Z,99.99
2018-12-10T11:19:15.159Z,99.99
2018-12-10T11:20:23.224Z,99.99
2018-12-10T11:21:31.286Z,99.99
2018-12-10T11:22:40.384Z,99.99
2018-12-10T11:23:47.409Z,99.99
2018-12-10T11:24:55.441Z,99.99
2018-12-10T11:26:03.521Z,99.99
2018-12-10T11:27:11.588Z,99.99
2018-12-10T11:28:19.637Z,99.99
2018-12-10T11:29:27.701Z,99.99
2018-12-10T11:30:35.760Z,99.99
2018-12-10T11:31:43.823Z,99.99
2018-12-10T11:32:51.877Z,99.99
2018-12-10T11:33:59.927Z,99.99
2018-12-10T11:35:07.995Z,99.99
2018-12-10T11:36:16.068Z,99.99
2018-12-10T11:37:24.107Z,99.99
2018-12-10T11:38:32.171Z,99.99
2018-12-10T11:39:40.240Z,99.99
2018-12-10T11:40:48.297Z,99.99
2018-12-10T11:41:56.343Z,99.99
2018-12-10T11:43:04.407Z,99.99
2018-12-10T11:44:12.463Z,99.99
2018-12-10T11:45:20.523Z,99.99
2018-12-10T11:46:28.570Z,99.99
2018-12-10T11:47:36.643Z,99.99
2018-12-10T11:48:44.702Z,99.99
2018-12-10T11:49:52.756Z,99.99
2018-12-10T11:51:00.818Z,99.99
2018-12-10T11:52:08.885Z,99.99
2018-12-10T11:53:16.923Z,99.99
2018-12-10T11:54:24.986Z,99.99
2018-12-10T11:55:33.043Z,99.99
2018-12-10T11:56:41.112Z,99.99
2018-12-10T11:57:49.163Z,99.99
2018-12-10T11:58:57.220Z,99.99
2018-12-10T12:00:05.261Z,99.99
2018-12-10T12:01:13.338Z,99.99
2018-12-10T12:02:29.577Z,99.99
2018-12-10T12:03:29.471Z,99.99
2018-12-10T12:04:37.519Z,99.99
2018-12-10T12:05:45.567Z,99.99
2018-12-10T12:06:53.636Z,99.99
2018-12-10T12:08:01.745Z,99.99
2018-12-10T12:09:09.753Z,99.99
2018-12-10T12:10:17.815Z,99.99
2018-12-10T12:11:25.854Z,99.99
2018-12-10T12:12:33.928Z,99.99
2018-12-10T12:13:41.997Z,99.99
2018-12-10T12:14:50.045Z,99.99
2018-12-10T12:15:58.122Z,99.99
2018-12-10T12:17:06.170Z,99.99
2018-12-10T12:18:14.244Z,99.99
2018-12-10T12:19:22.294Z,99.99
2018-12-10T12:20:30.354Z,99.99
2018-12-10T12:21:38.406Z,99.99
2018-12-10T12:22:46.461Z,99.99
2018-12-10T12:23:54.520Z,99.99
2018-12-10T12:25:02.658Z,99.99
2018-12-10T12:26:10.650Z,99.99
2018-12-10T12:27:18.708Z,99.99
2018-12-10T12:28:26.756Z,99.99
2018-12-10T12:29:34.810Z,99.99
2018-12-10T12:30:42.888Z,99.99
2018-12-10T12:31:50.963Z,99.99
2018-12-10T12:32:59.004Z,99.99
2018-12-10T12:34:07.063Z,99.99
2018-12-10T12:35:15.113Z,99.99
2018-12-10T12:36:23.172Z,99.99
2018-12-10T12:37:31.232Z,99.99
2018-12-10T12:38:39.310Z,99.99
2018-12-10T12:39:47.351Z,99.99
2018-12-10T12:40:55.404Z,99.99
2018-12-10T12:42:03.462Z,99.99
2018-12-10T12:43:15.734Z,99.99
2018-12-10T12:44:19.589Z,99.99
2018-12-10T12:45:27.646Z,99.99
2018-12-10T12:46:35.692Z,99.99
2018-12-10T12:47:43.772Z,99.99
2018-12-10T12:48:51.822Z,99.99
2018-12-10T12:49:59.895Z,99.99
2018-12-10T12:51:07.944Z,99.99
2018-12-10T12:52:16.006Z,99.99
2018-12-10T12:53:24.099Z,99.99
2018-12-10T12:54:32.124Z,99.99
2018-12-10T12:55:40.193Z,99.99
2018-12-10T12:56:48.259Z,99.99
2018-12-10T12:57:56.301Z,99.99
2018-12-10T12:59:04.546Z,99.99
2018-12-10T13:00:12.414Z,99.99
2018-12-10T13:01:20.493Z,99.99
2018-12-10T13:02:28.621Z,99.99
2018-12-10T13:03:36.602Z,99.99
2018-12-10T13:04:44.678Z,99.99
2018-12-10T13:05:52.724Z,99.99
2018-12-10T13:07:00.785Z,99.99
2018-12-10T13:08:08.838Z,99.99
2018-12-10T13:09:21.671Z,99.99
2018-12-10T13:10:24.951Z,99.99
2018-12-10T13:11:33.029Z,99.99
2018-12-10T13:12:41.087Z,99.99
2018-12-10T13:13:49.142Z,99.99
2018-12-10T13:14:57.200Z,99.99
2018-12-10T13:16:05.227Z,99.99
2018-12-10T13:17:13.311Z,99.99
2018-12-10T13:18:21.380Z,99.99
2018-12-10T13:19:29.754Z,99.99
2018-12-10T13:20:37.498Z,99.99
2018-12-10T13:21:45.552Z,99.99
2018-12-10T13:22:53.616Z,99.99
2018-12-10T13:24:01.684Z,99.99
2018-12-10T13:25:09.741Z,99.99
2018-12-10T13:26:17.794Z,99.99
2018-12-10T13:27:25.824Z,99.99
2018-12-10T13:28:33.912Z,99.99
2018-12-10T13:29:41.973Z,99.99
2018-12-10T13:30:50.023Z,99.99
2018-12-10T13:31:59.427Z,99.99
2018-12-10T13:33:06.153Z,99.99
2018-12-10T13:34:14.191Z,99.99
2018-12-10T13:35:22.276Z,99.99
2018-12-10T13:36:30.339Z,99.99
2018-12-10T13:37:38.399Z,99.99
2018-12-10T13:38:46.454Z,99.99
2018-12-10T13:39:54.498Z,99.99
2018-12-10T13:41:02.570Z,99.99
2018-12-10T13:42:10.625Z,99.99
2018-12-10T13:43:18.712Z,99.99
2018-12-10T13:44:26.749Z,99.99
2018-12-10T13:45:34.793Z,99.99
2018-12-10T13:46:42.879Z,99.99
2018-12-10T13:47:50.928Z,99.99
2018-12-10T13:48:58.993Z,99.99
2018-12-10T13:50:07.034Z,99.99
2018-12-10T13:51:15.072Z,99.99
2018-12-10T13:52:23.160Z,99.99
2018-12-10T13:53:31.232Z,99.99
2018-12-10T13:54:39.303Z,99.99
2018-12-10T13:55:47.349Z,99.99
2018-12-10T13:56:55.395Z,99.99
2018-12-10T13:58:03.463Z,99.99
2018-12-10T13:59:11.537Z,99.99
2018-12-10T14:00:19.619Z,99.99
2018-12-10T14:01:27.637Z,99.99
2018-12-10T14:02:35.682Z,99.99
2018-12-10T14:03:43.758Z,99.99
2018-12-10T14:04:51.818Z,99.99
2018-12-10T14:05:59.869Z,99.99
2018-12-10T14:07:07.995Z,99.99
2018-12-10T14:08:15.992Z,99.99
2018-12-10T14:09:24.064Z,99.99
2018-12-10T14:10:32.136Z,99.99
2018-12-10T14:11:40.180Z,99.99
2018-12-10T14:12:48.227Z,99.99
2018-12-10T14:13:56.290Z,99.99
2018-12-10T14:15:04.363Z,99.99
2018-12-10T14:16:12.418Z,99.99
2018-12-10T14:17:20.473Z,99.99
2018-12-10T14:18:28.533Z,99.99
2018-12-10T14:19:36.590Z,99.99
2018-12-10T14:20:44.665Z,99.99
2018-12-10T14:21:52.715Z,99.99
2018-12-10T14:23:00.776Z,99.99
2018-12-10T14:24:08.823Z,99.99
2018-12-10T14:25:16.893Z,99.99
2018-12-10T14:26:24.939Z,99.99
2018-12-10T14:27:33.013Z,99.99
2018-12-10T14:28:41.068Z,99.99
2018-12-10T14:29:49.129Z,99.99
2018-12-10T14:30:57.181Z,99.99
2018-12-10T14:32:05.232Z,99.99
2018-12-10T14:33:13.325Z,99.99
2018-12-10T14:34:21.340Z,99.99
2018-12-10T14:35:29.426Z,99.99
2018-12-10T14:36:37.488Z,99.99